Lulu Pass Weather Station

This weather station provides temperature, relative humidity (RH), wind speed, gust or max wind speed, and wind direction at 10014ft near Lulu Pass at the head of Fisher Creek. This data can be used with temperature and precipitation data from the Fisher Creek SNOTEL site.

This weather station was purchased by the Friends of the Avalanche Center.

If the data has not been updated recently you can view it directly on datagarrison.com

Elevation
10014ft
Jump to table bottom
Date Time Temperature
deg F
RH, % Wind Speed Wind Gust Wind Direction
11/28/21 12:00 27.5 97 9 21 SW - 219
11/28/21 11:00 26.3 97 7 19 SW - 232
11/28/21 10:00 25.8 97 6 16 W - 277
11/28/21 09:00 25.1 97 7 15 SW - 215
11/28/21 08:00 25.1 97 5 12 SW - 234
11/28/21 07:00 25.3 97 6 12 W - 254
11/28/21 06:00 24.2 96 5 12 W - 267
11/28/21 05:00 23.1 96 7 17 W - 282
11/28/21 04:00 21.9 96 7 14 W - 277
11/28/21 03:00 21.4 95 8 15 W - 278
11/28/21 02:00 20.4 95 8 21 SW - 240
11/28/21 01:00 20.3 94 6 17 SW - 225
11/28/21 00:00 20.8 93 8 20 SW - 213
11/27/21 23:00 20.9 93 8 21 SW - 227
11/27/21 22:00 20.7 89 7 13 W - 275
11/27/21 21:00 20.7 90 7 16 W - 250
11/27/21 20:00 20.6 87 9 21 SW - 244
11/27/21 19:00 20.4 81 9 19 W - 251
11/27/21 18:00 21.5 74 9 18 W - 265
11/27/21 17:00 22.9 75 9 21 W - 267
11/27/21 16:00 23.8 82 9 16 NW - 296
11/27/21 15:00 22.5 84 7 16 W - 264
11/27/21 14:00 21.2 85 10 18 W - 288
11/27/21 13:00 20.0 87 16 20 NW - 306
11/27/21 12:00 19.4 88 14 20 NW - 303
11/27/21 11:00 17.4 89 6 15 W - 281
11/27/21 10:00 17.9 91 3 13 W - 271
11/27/21 09:00 16.0 92 6 13 SW - 219
11/27/21 08:00 16.2 91 10 17 NW - 326
11/27/21 07:00 17.1 88 8 15 NW - 326
11/27/21 06:00 16.9 88 5 10 NW - 331
11/27/21 05:00 16.8 88 6 16 S - 195
11/27/21 04:00 17.2 87 6 12 S - 191
11/27/21 03:00 17.0 88 6 15 W - 254
11/27/21 02:00 16.5 87 9 19 NW - 306
11/27/21 01:00 18.2 85 10 21 W - 278
11/27/21 00:00 18.7 84 9 20 SW - 236
11/26/21 23:00 19.8 83 10 23 W - 271
11/26/21 22:00 19.2 81 7 21 W - 248
11/26/21 21:00 19.5 81 12 27 SW - 223
11/26/21 20:00 18.9 83 10 23 SW - 247
11/26/21 19:00 18.9 87 11 24 W - 277
11/26/21 18:00 18.9 89 9 20 SW - 236
11/26/21 17:00 18.0 90 8 20 SW - 229
11/26/21 16:00 18.4 82 13 30 SW - 218
11/26/21 15:00 20.3 73 10 23 W - 251
11/26/21 14:00 20.8 54 12 27 SW - 227
11/26/21 13:00 21.6 51 10 24 SW - 241
11/26/21 12:00 21.6 52 11 25 SW - 229
11/26/21 11:00 20.7 54 10 24 SW - 241